Powell Point, Texas
Current Conditions -  °F | °C
As of 4:35 AM on Thursday 27 Nov 2014 (Local Time) from KARM Reporting Station
Clear Clear  
Wind Chill: 44°   Ceiling: Unl
Heat Index: 47°   Visibility: 10mi
Dew Point: 40°   Wind: 7mph
Humidity: 76%   Direction: 10°N
Pressure: 30.38"   Gusts: NA
Location:  29.4506°N, 96.0068°W
Report Text: KARM 271035Z AUTO 01006KT 10SM CLR 09/05 A3038 RMK AO2 T00860045
Loading
Personal Weather Stations






























Interactive Weather Map New forecast layout! Learn more

10-Day Weather Forecast

Advertisements
Track Severe Weather on mobile